Hartley Bay, Canada
Current Conditions -  °F | °C
As of 6:00 AM on Sunday 25 Jan 2015 (Local Time) from CYXT Reporting Station
Overcast Overcast  
Wind Chill: 39°   Ceiling: 600
Heat Index: 45°   Visibility: 7mi
Dew Point: 43°   Wind: 12mph
Humidity: 93%   Direction: 200°SSW
Pressure: 29.89"   Gusts: 23mph
Location:  53.43°N, 129.27°W
Report Text: CYXT 251400Z 20010G20KT 7SM BKN006 OVC030 07/06 A2989 RMK SC6SC2 SLP129
Loading
Personal Weather Stations






























Interactive Weather Map New forecast layout! Learn more

10-Day Weather Forecast

Advertisements
Track Severe Weather on mobile